Mancio Lima, Brazil
Current Conditions -  °F | °C
As of 6:00 PM on Thursday 27 Nov 2014 (Local Time) from SBCZ Reporting Station
Few Clouds Few Clouds  
Wind Chill: 84°   Ceiling: Unl
Heat Index: 96°   Visibility: 6mi
Dew Point: 79°   Wind: 2mph
Humidity: 84%   Direction: 20°NNE
Pressure: 29.74"   Gusts: NA
Location:  7.62°S, 72.9°W
Report Text: SBCZ 272300Z 02002KT 9999 FEW030 29/26 Q1007
Loading
Personal Weather Stations






























Interactive Weather Map New forecast layout! Learn more

10-Day Weather Forecast

Advertisements
Track Severe Weather on mobile